createdAt,value
2023-05-12T00:01:19.865Z,96683.38
2023-05-12T00:03:46.819Z,96678.38
2023-05-12T00:06:13.581Z,96685.56
2023-05-12T00:08:40.056Z,96694.63
2023-05-12T00:11:06.739Z,96692.00
2023-05-12T00:13:33.306Z,96680.38
2023-05-12T00:16:00.012Z,96675.94
2023-05-12T00:18:28.343Z,96680.47
2023-05-12T00:20:55.596Z,96679.69
2023-05-12T00:23:22.711Z,96690.34
2023-05-12T00:25:49.705Z,96690.66
2023-05-12T00:28:17.660Z,96677.50
2023-05-12T00:30:44.270Z,96675.97
2023-05-12T00:33:11.003Z,96678.50
2023-05-12T00:35:37.513Z,96672.50
2023-05-12T00:38:04.007Z,96674.22
2023-05-12T00:40:30.531Z,96666.88
2023-05-12T00:42:56.992Z,96686.66
2023-05-12T00:45:23.848Z,96674.88
2023-05-12T00:47:52.096Z,96672.41
2023-05-12T00:50:19.062Z,96685.38
2023-05-12T00:52:47.152Z,96678.59
2023-05-12T00:55:21.661Z,96676.31
2023-05-12T00:57:48.165Z,96675.47
2023-05-12T01:00:21.881Z,96681.94
2023-05-12T01:02:49.061Z,96684.75
2023-05-12T01:05:17.083Z,96677.50
2023-05-12T01:07:46.643Z,96677.50
2023-05-12T01:10:21.285Z,96679.47
2023-05-12T01:12:48.409Z,96688.91
2023-05-12T01:15:15.101Z,96679.56
2023-05-12T01:17:47.165Z,96679.22
2023-05-12T01:20:16.588Z,96684.88
2023-05-12T01:22:43.300Z,96683.16
2023-05-12T01:25:14.464Z,96659.22
2023-05-12T01:27:42.572Z,96680.63
2023-05-12T01:30:11.116Z,96659.66
2023-05-12T01:32:39.281Z,96666.47
2023-05-12T01:35:06.349Z,96676.50
2023-05-12T01:37:32.928Z,96666.56
2023-05-12T01:39:59.436Z,96667.25
2023-05-12T01:42:25.917Z,96657.22
2023-05-12T01:44:52.383Z,96678.34
2023-05-12T01:47:18.971Z,96667.81
2023-05-12T01:49:45.718Z,96666.72
2023-05-12T01:52:12.253Z,96666.53
2023-05-12T01:54:38.949Z,96670.72
2023-05-12T01:57:11.292Z,96670.53
2023-05-12T01:59:37.818Z,96676.88
2023-05-12T02:02:04.519Z,96673.00
2023-05-12T02:04:31.028Z,96671.97
2023-05-12T02:06:57.490Z,96666.91
2023-05-12T02:09:23.972Z,96671.47
2023-05-12T02:11:50.569Z,96668.91
2023-05-12T02:14:17.089Z,96676.53
2023-05-12T02:16:43.915Z,96677.06
2023-05-12T02:19:10.753Z,96659.66
2023-05-12T02:21:37.256Z,96669.78
2023-05-12T02:24:03.878Z,96670.19
2023-05-12T02:26:36.195Z,96659.50
2023-05-12T02:29:02.680Z,96659.66
2023-05-12T02:31:29.169Z,96650.00
2023-05-12T02:33:55.980Z,96653.56
2023-05-12T02:36:22.474Z,96648.22
2023-05-12T02:38:48.988Z,96651.13
2023-05-12T02:41:15.442Z,96637.69
2023-05-12T02:43:41.975Z,96643.88
2023-05-12T02:46:08.501Z,96650.13
2023-05-12T02:48:35.134Z,96635.91
2023-05-12T02:51:01.603Z,96653.13
2023-05-12T02:53:34.936Z,96639.81
2023-05-12T02:56:01.492Z,96657.66
2023-05-12T02:58:28.027Z,96645.09
2023-05-12T03:01:06.591Z,96656.53
2023-05-12T03:03:38.907Z,96656.53
2023-05-12T03:06:06.336Z,96661.88
2023-05-12T03:08:33.259Z,96660.53
2023-05-12T03:11:00.846Z,96650.75
2023-05-12T03:13:27.477Z,96661.38
2023-05-12T03:15:55.778Z,96656.03
2023-05-12T03:18:22.621Z,96640.78
2023-05-12T03:20:49.140Z,96661.09
2023-05-12T03:23:16.907Z,96659.84
2023-05-12T03:25:43.588Z,96659.09
2023-05-12T03:28:13.127Z,96662.66
2023-05-12T03:30:39.632Z,96657.38
2023-05-12T03:33:06.208Z,96659.00
2023-05-12T03:35:32.682Z,96665.00
2023-05-12T03:37:59.223Z,96647.13
2023-05-12T03:40:25.881Z,96658.31
2023-05-12T03:42:52.375Z,96665.94
2023-05-12T03:45:19.077Z,96666.72
2023-05-12T03:47:45.738Z,96660.59
2023-05-12T03:50:12.843Z,96648.88
2023-05-12T03:52:41.208Z,96645.50
2023-05-12T03:55:08.218Z,96654.31
2023-05-12T03:57:36.526Z,96648.06
2023-05-12T04:00:06.988Z,96629.66
2023-05-12T04:02:34.629Z,96651.59
2023-05-12T04:05:01.243Z,96636.44
2023-05-12T04:07:27.824Z,96639.97
2023-05-12T04:09:54.313Z,96639.16
2023-05-12T04:12:20.800Z,96638.53
2023-05-12T04:14:48.363Z,96637.88
2023-05-12T04:17:14.906Z,96632.56
2023-05-12T04:19:42.776Z,96629.19
2023-05-12T04:22:09.352Z,96642.72
2023-05-12T04:24:37.657Z,96661.47
2023-05-12T04:27:04.468Z,96650.16
2023-05-12T04:29:31.926Z,96666.38
2023-05-12T04:32:00.203Z,96662.91
2023-05-12T04:34:26.727Z,96674.53
2023-05-12T04:36:53.476Z,96658.56
2023-05-12T04:39:30.276Z,96669.63
2023-05-12T04:41:56.758Z,96676.25
2023-05-12T04:44:24.292Z,96680.97
2023-05-12T04:46:53.385Z,96668.34
2023-05-12T04:49:19.906Z,96669.34
2023-05-12T04:51:46.343Z,96673.09
2023-05-12T04:54:14.835Z,96685.75
2023-05-12T04:56:41.314Z,96678.41
2023-05-12T04:59:07.842Z,96683.22
2023-05-12T05:01:34.375Z,96665.63
2023-05-12T05:04:00.868Z,96669.63
2023-05-12T05:06:28.214Z,96688.47
2023-05-12T05:08:56.034Z,96680.41
2023-05-12T05:11:23.101Z,96680.84
2023-05-12T05:13:49.689Z,96688.47
2023-05-12T05:16:16.294Z,96686.00
2023-05-12T05:18:46.770Z,96686.00
2023-05-12T05:21:16.802Z,96694.44
2023-05-12T05:23:43.286Z,96686.66
2023-05-12T05:26:09.886Z,96694.38
2023-05-12T05:28:37.365Z,96694.25
2023-05-12T05:31:03.907Z,96679.28
2023-05-12T05:33:30.401Z,96691.34
2023-05-12T05:35:57.083Z,96692.34
2023-05-12T05:38:23.623Z,96703.63
2023-05-12T05:40:53.819Z,96682.03
2023-05-12T05:43:21.991Z,96688.13
2023-05-12T05:45:49.884Z,96700.78
2023-05-12T05:48:16.580Z,96700.06
2023-05-12T05:50:43.281Z,96691.00
2023-05-12T05:53:09.770Z,96688.53
2023-05-12T05:55:38.247Z,96703.25
2023-05-12T05:58:05.565Z,96701.13
2023-05-12T06:00:32.056Z,96706.13
2023-05-12T06:02:58.901Z,96707.22
2023-05-12T06:05:25.452Z,96711.88
2023-05-12T06:07:55.115Z,96718.28
2023-05-12T06:10:21.909Z,96718.41
2023-05-12T06:12:51.706Z,96719.50
2023-05-12T06:15:19.449Z,96715.88
2023-05-12T06:17:46.201Z,96711.94
2023-05-12T06:20:13.501Z,96727.41
2023-05-12T06:22:42.363Z,96722.84
2023-05-12T06:25:09.755Z,96723.75
2023-05-12T06:27:36.696Z,96718.97
2023-05-12T06:30:04.281Z,96722.38
2023-05-12T06:32:30.904Z,96720.88
2023-05-12T06:34:57.447Z,96736.81
2023-05-12T06:37:23.918Z,96735.91
2023-05-12T06:39:50.389Z,96735.97
2023-05-12T06:42:16.870Z,96742.56
2023-05-12T06:44:43.486Z,96726.88
2023-05-12T06:47:14.953Z,96741.81
2023-05-12T06:49:41.476Z,96729.09
2023-05-12T06:52:10.029Z,96740.94
2023-05-12T06:54:36.524Z,96731.16
2023-05-12T06:57:03.005Z,96733.19
2023-05-12T06:59:29.673Z,96722.06
2023-05-12T07:01:56.164Z,96732.41
2023-05-12T07:04:23.438Z,96746.06
2023-05-12T07:06:56.868Z,96731.47
2023-05-12T07:09:23.350Z,96742.69
2023-05-12T07:11:49.862Z,96733.03
2023-05-12T07:14:16.490Z,96738.69
2023-05-12T07:16:43.022Z,96737.16
2023-05-12T07:19:09.687Z,96733.28
2023-05-12T07:21:41.848Z,96754.41
2023-05-12T07:24:08.393Z,96731.47
2023-05-12T07:26:34.902Z,96744.63
2023-05-12T07:29:02.541Z,96737.16
2023-05-12T07:31:29.192Z,96752.00
2023-05-12T07:33:55.780Z,96748.47
2023-05-12T07:36:22.350Z,96759.00
2023-05-12T07:38:48.940Z,96752.59
2023-05-12T07:41:15.503Z,96743.91
2023-05-12T07:43:42.007Z,96745.66
2023-05-12T07:46:08.878Z,96745.22
2023-05-12T07:48:39.860Z,96760.59
2023-05-12T07:51:07.893Z,96750.13
2023-05-12T07:53:41.532Z,96758.31
2023-05-12T07:56:08.315Z,96751.00
2023-05-12T07:58:34.767Z,96758.00
2023-05-12T08:01:05.987Z,96762.03
2023-05-12T08:03:33.553Z,96760.13
2023-05-12T08:06:00.363Z,96753.09
2023-05-12T08:08:34.629Z,96752.19
2023-05-12T08:11:01.107Z,96762.91
2023-05-12T08:13:27.672Z,96771.56
2023-05-12T08:15:54.182Z,96761.56
2023-05-12T08:18:21.297Z,96765.00
2023-05-12T08:20:50.192Z,96778.53
2023-05-12T08:23:17.580Z,96772.28
2023-05-12T08:25:44.606Z,96768.97
2023-05-12T08:28:12.971Z,96777.38
2023-05-12T08:30:39.816Z,96779.09
2023-05-12T08:33:06.513Z,96772.22
2023-05-12T08:35:33.121Z,96781.69
2023-05-12T08:37:59.714Z,96772.53
2023-05-12T08:40:29.757Z,96773.38
2023-05-12T08:43:38.980Z,96787.66
2023-05-12T08:46:06.189Z,96778.13
2023-05-12T08:48:35.392Z,96778.47
2023-05-12T08:51:03.324Z,96782.50
2023-05-12T08:53:33.530Z,96781.75
2023-05-12T08:57:09.852Z,96792.31
2023-05-12T08:58:49.851Z,96793.84
2023-05-12T09:01:18.025Z,96789.47
2023-05-12T09:03:45.395Z,96779.56
2023-05-12T09:06:13.356Z,96804.41
2023-05-12T09:08:41.093Z,96794.50
2023-05-12T09:11:12.521Z,96790.22
2023-05-12T09:13:52.799Z,96781.47
2023-05-12T09:16:24.159Z,96795.25
2023-05-12T09:18:53.047Z,96785.03
2023-05-12T09:21:20.108Z,96781.97
2023-05-12T09:24:06.950Z,96784.91
2023-05-12T09:26:49.336Z,96787.53
2023-05-12T09:29:24.308Z,96775.72
2023-05-12T09:31:58.685Z,96779.44
2023-05-12T09:34:30.996Z,96784.06
2023-05-12T09:37:00.028Z,96794.09
2023-05-12T09:39:27.066Z,96793.25
2023-05-12T09:41:53.937Z,96787.41
2023-05-12T09:44:21.492Z,96790.69
2023-05-12T09:46:49.056Z,96797.19
2023-05-12T09:49:25.982Z,96797.81
2023-05-12T09:51:59.900Z,96798.44
2023-05-12T09:54:31.022Z,96802.97
2023-05-12T09:57:00.406Z,96793.41
2023-05-12T09:59:32.772Z,96791.63
2023-05-12T10:02:01.574Z,96798.50
2023-05-12T10:04:32.220Z,96804.84
2023-05-12T10:06:59.531Z,96790.44
2023-05-12T10:09:30.933Z,96796.41
2023-05-12T10:11:58.239Z,96781.94
2023-05-12T10:14:25.936Z,96782.00
2023-05-12T10:16:53.974Z,96794.78
2023-05-12T10:19:21.444Z,96792.19
2023-05-12T10:21:48.840Z,96796.34
2023-05-12T10:24:16.874Z,96805.19
2023-05-12T10:26:44.772Z,96800.94
2023-05-12T10:29:12.766Z,96795.44
2023-05-12T10:31:40.075Z,96796.25
2023-05-12T10:34:07.080Z,96800.56
2023-05-12T10:36:50.929Z,96799.75
2023-05-12T10:39:18.332Z,96803.19
2023-05-12T10:41:44.813Z,96797.47
2023-05-12T10:44:11.538Z,96796.28
2023-05-12T10:46:38.565Z,96798.28
2023-05-12T10:49:13.044Z,96794.66
2023-05-12T10:51:42.498Z,96809.31
2023-05-12T10:54:10.943Z,96795.66
2023-05-12T10:56:38.380Z,96814.19
2023-05-12T10:59:12.044Z,96803.22
2023-05-12T11:01:42.963Z,96804.44
2023-05-12T11:04:15.179Z,96810.53
2023-05-12T11:06:44.969Z,96806.28
2023-05-12T11:09:13.386Z,96792.84
2023-05-12T11:11:40.482Z,96792.66
2023-05-12T11:14:08.273Z,96786.53
2023-05-12T11:16:41.125Z,96799.34
2023-05-12T11:19:07.731Z,96800.38
2023-05-12T11:21:34.651Z,96805.44
2023-05-12T11:24:02.223Z,96804.66
2023-05-12T11:26:30.050Z,96803.63
2023-05-12T11:28:59.849Z,96799.94
2023-05-12T11:31:26.813Z,96808.06
2023-05-12T11:34:12.453Z,96806.25
2023-05-12T11:36:42.401Z,96808.53
2023-05-12T11:39:25.685Z,96808.47
2023-05-12T11:41:59.354Z,96803.16
2023-05-12T11:44:32.516Z,96808.91
2023-05-12T11:47:11.715Z,96825.00
2023-05-12T11:49:52.387Z,96812.19
2023-05-12T11:52:20.486Z,96816.41
2023-05-12T11:54:51.859Z,96817.22
2023-05-12T11:57:35.155Z,96815.13
2023-05-12T12:00:09.793Z,96799.41
2023-05-12T12:02:43.280Z,96807.31
2023-05-12T12:05:18.281Z,96803.06
2023-05-12T12:07:45.264Z,96815.03
2023-05-12T12:10:18.848Z,96815.91
2023-05-12T12:12:46.031Z,96799.56
2023-05-12T12:15:13.230Z,96805.41
2023-05-12T12:17:40.895Z,96813.00
2023-05-12T12:20:09.235Z,96795.09
2023-05-12T12:22:36.087Z,96810.69
2023-05-12T12:25:03.099Z,96817.66
2023-05-12T12:27:29.685Z,96810.69
2023-05-12T12:29:56.490Z,96806.88
2023-05-12T12:32:22.988Z,96813.53
2023-05-12T12:34:49.605Z,96824.66
2023-05-12T12:37:17.303Z,96823.66
2023-05-12T12:39:43.854Z,96813.47
2023-05-12T12:42:10.361Z,96814.88
2023-05-12T12:44:36.838Z,96825.47
2023-05-12T12:47:03.718Z,96826.28
2023-05-12T12:49:30.231Z,96810.09
2023-05-12T12:51:56.734Z,96817.50
2023-05-12T12:54:25.166Z,96811.34
2023-05-12T12:56:51.701Z,96818.09
2023-05-12T12:59:18.299Z,96812.81
2023-05-12T13:01:44.843Z,96826.72
2023-05-12T13:04:11.353Z,96823.09
2023-05-12T13:06:37.805Z,96820.97
2023-05-12T13:09:04.444Z,96820.44
2023-05-12T13:11:31.016Z,96811.50
2023-05-12T13:13:57.481Z,96816.47
2023-05-12T13:16:23.958Z,96811.41
2023-05-12T13:18:50.811Z,96810.53
2023-05-12T13:21:18.883Z,96807.84
2023-05-12T13:23:45.376Z,96823.78
2023-05-12T13:26:11.934Z,96819.31
2023-05-12T13:28:38.404Z,96819.59
2023-05-12T13:31:06.179Z,96825.00
2023-05-12T13:33:32.798Z,96815.91
2023-05-12T13:35:59.380Z,96825.63
2023-05-12T13:38:26.437Z,96825.63
2023-05-12T13:40:54.446Z,96833.03
2023-05-12T13:43:21.525Z,96827.72
2023-05-12T13:45:48.126Z,96825.63
2023-05-12T13:48:14.631Z,96819.19
2023-05-12T13:50:41.468Z,96820.47
2023-05-12T13:53:07.924Z,96829.63
2023-05-12T13:55:40.653Z,96827.41
2023-05-12T13:58:07.628Z,96831.53
2023-05-12T14:00:34.150Z,96820.56
2023-05-12T14:03:00.709Z,96819.59
2023-05-12T14:05:27.500Z,96814.63
2023-05-12T14:07:54.078Z,96816.13
2023-05-12T14:10:20.598Z,96802.34
2023-05-12T14:12:47.986Z,96797.69
2023-05-12T14:15:29.644Z,96816.78
2023-05-12T14:18:01.012Z,96802.25
2023-05-12T14:20:27.541Z,96799.63
2023-05-12T14:22:55.698Z,96799.81
2023-05-12T14:25:23.980Z,96807.09
2023-05-12T14:27:50.858Z,96808.38
2023-05-12T14:30:17.943Z,96805.00
2023-05-12T14:32:44.523Z,96806.69
2023-05-12T14:35:11.001Z,96811.19
2023-05-12T14:37:37.542Z,96818.16
2023-05-12T14:40:05.430Z,96816.25
2023-05-12T14:42:32.388Z,96824.16
2023-05-12T14:44:59.346Z,96829.81
2023-05-12T14:47:26.002Z,96810.88
2023-05-12T14:49:52.556Z,96831.59
2023-05-12T14:52:19.066Z,96837.44
2023-05-12T14:54:45.629Z,96823.88
2023-05-12T14:57:13.601Z,96831.63
2023-05-12T14:59:41.273Z,96820.66
2023-05-12T15:02:07.962Z,96828.31
2023-05-12T15:04:34.569Z,96836.16
2023-05-12T15:07:01.042Z,96826.03
2023-05-12T15:09:27.575Z,96829.63
2023-05-12T15:11:55.123Z,96839.47
2023-05-12T15:14:21.896Z,96844.31
2023-05-12T15:16:48.580Z,96840.03
2023-05-12T15:19:17.517Z,96833.50
2023-05-12T15:21:44.159Z,96847.22
2023-05-12T15:24:10.629Z,96842.66
2023-05-12T15:26:39.494Z,96843.25
2023-05-12T15:29:07.294Z,96837.81
2023-05-12T15:31:33.893Z,96837.44
2023-05-12T15:34:00.590Z,96852.91
2023-05-12T15:36:27.087Z,96852.16
2023-05-12T15:38:56.632Z,96854.44
2023-05-12T15:41:23.261Z,96864.28
2023-05-12T15:43:49.725Z,96838.81
2023-05-12T15:46:16.440Z,96851.00
2023-05-12T15:48:42.934Z,96842.25
2023-05-12T15:51:09.431Z,96837.97
2023-05-12T15:53:36.261Z,96843.47
2023-05-12T15:56:03.969Z,96831.94
2023-05-12T15:58:30.748Z,96838.31
2023-05-12T16:00:57.324Z,96834.75
2023-05-12T16:03:24.026Z,96842.22
2023-05-12T16:05:50.844Z,96830.72
2023-05-12T16:08:17.732Z,96832.50
2023-05-12T16:10:44.928Z,96822.31
2023-05-12T16:13:11.581Z,96829.84
2023-05-12T16:15:38.081Z,96836.44
2023-05-12T16:18:09.102Z,96837.69
2023-05-12T16:20:37.566Z,96835.75
2023-05-12T16:23:04.022Z,96838.56
2023-05-12T16:25:30.566Z,96834.25
2023-05-12T16:27:57.136Z,96833.84
2023-05-12T16:30:25.052Z,96825.69
2023-05-12T16:32:51.586Z,96833.69
2023-05-12T16:35:18.262Z,96839.00
2023-05-12T16:37:44.906Z,96852.88
2023-05-12T16:40:12.165Z,96828.66
2023-05-12T16:42:39.689Z,96837.56
2023-05-12T16:45:06.823Z,96853.84
2023-05-12T16:47:33.375Z,96841.47
2023-05-12T16:49:59.975Z,96842.31
2023-05-12T16:52:26.891Z,96854.50
2023-05-12T16:54:55.893Z,96857.78
2023-05-12T16:57:22.403Z,96865.09
2023-05-12T16:59:48.869Z,96860.63
2023-05-12T17:02:15.889Z,96855.53
2023-05-12T17:04:42.605Z,96854.31
2023-05-12T17:07:09.685Z,96850.44
2023-05-12T17:09:36.652Z,96871.63
2023-05-12T17:12:04.551Z,96867.31
2023-05-12T17:14:31.311Z,96866.53
2023-05-12T17:16:57.865Z,96860.22
2023-05-12T17:19:24.451Z,96856.75
2023-05-12T17:21:50.913Z,96865.28
2023-05-12T17:24:17.708Z,96861.00
2023-05-12T17:26:44.862Z,96861.13
2023-05-12T17:29:11.306Z,96866.25
2023-05-12T17:31:38.657Z,96863.41
2023-05-12T17:34:05.566Z,96869.09
2023-05-12T17:36:33.012Z,96876.78
2023-05-12T17:39:00.057Z,96880.03
2023-05-12T17:41:28.919Z,96882.19
2023-05-12T17:43:55.818Z,96888.09
2023-05-12T17:46:23.010Z,96890.75
2023-05-12T17:48:49.683Z,96903.06
2023-05-12T17:51:16.301Z,96886.25
2023-05-12T17:53:44.041Z,96901.44
2023-05-12T17:56:11.535Z,96896.53
2023-05-12T17:58:38.513Z,96899.50
2023-05-12T18:01:05.094Z,96899.69
2023-05-12T18:03:31.740Z,96896.00
2023-05-12T18:05:58.243Z,96912.06
2023-05-12T18:08:24.702Z,96912.47
2023-05-12T18:10:51.217Z,96921.63
2023-05-12T18:13:17.763Z,96917.19
2023-05-12T18:15:44.273Z,96917.13
2023-05-12T18:18:10.914Z,96921.84
2023-05-12T18:20:37.759Z,96912.00
2023-05-12T18:23:04.434Z,96916.03
2023-05-12T18:25:31.232Z,96910.94
2023-05-12T18:27:57.746Z,96915.03
2023-05-12T18:30:24.192Z,96920.00
2023-05-12T18:32:51.027Z,96928.84
2023-05-12T18:35:18.041Z,96919.72
2023-05-12T18:37:45.068Z,96916.63
2023-05-12T18:40:12.183Z,96921.50
2023-05-12T18:42:38.999Z,96925.53
2023-05-12T18:45:06.167Z,96921.03
2023-05-12T18:47:33.484Z,96928.16
2023-05-12T18:50:00.095Z,96937.19
2023-05-12T18:52:26.609Z,96940.78
2023-05-12T18:54:54.045Z,96929.78
2023-05-12T18:57:20.862Z,96931.28
2023-05-12T18:59:47.356Z,96936.75
2023-05-12T19:02:13.817Z,96932.31
2023-05-12T19:04:40.501Z,96931.78
2023-05-12T19:07:09.824Z,96928.41
2023-05-12T19:09:37.234Z,96943.25
2023-05-12T19:12:06.127Z,96946.47
2023-05-12T19:14:32.869Z,96964.94
2023-05-12T19:16:59.385Z,96962.03
2023-05-12T19:19:25.885Z,96953.19
2023-05-12T19:21:53.155Z,96964.16
2023-05-12T19:24:19.645Z,96967.41
2023-05-12T19:26:46.379Z,96967.06
2023-05-12T19:29:12.991Z,96966.41
2023-05-12T19:31:39.590Z,96974.50
2023-05-12T19:34:07.080Z,96970.25
2023-05-12T19:36:33.804Z,96973.19
2023-05-12T19:39:00.497Z,96975.91
2023-05-12T19:41:30.045Z,96982.09
2023-05-12T19:43:56.626Z,96987.72
2023-05-12T19:46:23.392Z,96992.06
2023-05-12T19:48:51.005Z,96985.19
2023-05-12T19:51:17.558Z,96984.38
2023-05-12T19:53:44.474Z,96990.06
2023-05-12T19:56:11.177Z,96976.16
2023-05-12T19:58:38.367Z,96978.53
2023-05-12T20:01:05.068Z,96983.81
2023-05-12T20:03:32.939Z,96982.44
2023-05-12T20:05:59.486Z,96974.28
2023-05-12T20:08:25.968Z,96992.06
2023-05-12T20:10:52.429Z,96993.53
2023-05-12T20:13:18.892Z,96985.63
2023-05-12T20:15:45.363Z,96986.25
2023-05-12T20:18:14.607Z,96988.78
2023-05-12T20:20:42.237Z,96992.59
2023-05-12T20:23:08.968Z,96986.31
2023-05-12T20:25:36.200Z,96992.75
2023-05-12T20:28:03.008Z,96994.03
2023-05-12T20:30:29.984Z,96988.84
2023-05-12T20:32:56.670Z,96994.09
2023-05-12T20:35:23.442Z,96979.34
2023-05-12T20:37:50.611Z,96984.41
2023-05-12T20:40:17.230Z,96988.59
2023-05-12T20:42:49.011Z,96981.13
2023-05-12T20:45:16.319Z,96977.66
2023-05-12T20:47:42.917Z,96965.13
2023-05-12T20:50:09.990Z,96979.41
2023-05-12T20:52:40.097Z,96976.78
2023-05-12T20:55:07.249Z,96976.50
2023-05-12T20:57:34.060Z,96975.66
2023-05-12T21:00:00.675Z,96970.28
2023-05-12T21:02:28.616Z,96983.00
2023-05-12T21:04:55.790Z,96975.56
2023-05-12T21:07:22.384Z,96976.31
2023-05-12T21:09:49.071Z,96973.47
2023-05-12T21:12:15.498Z,96972.66
2023-05-12T21:14:44.053Z,96977.56
2023-05-12T21:17:12.105Z,96979.88
2023-05-12T21:19:40.033Z,96970.19
2023-05-12T21:22:07.922Z,96971.19
2023-05-12T21:24:36.430Z,96972.19
2023-05-12T21:27:04.214Z,96961.34
2023-05-12T21:29:31.546Z,96971.47
2023-05-12T21:31:58.150Z,96964.81
2023-05-12T21:34:24.862Z,96960.81
2023-05-12T21:36:51.705Z,96962.34
2023-05-12T21:39:18.182Z,96977.16
2023-05-12T21:41:44.670Z,96979.91
2023-05-12T21:44:12.201Z,96972.44
2023-05-12T21:46:38.860Z,96972.28
2023-05-12T21:49:05.429Z,96970.09
2023-05-12T21:51:34.536Z,96968.63
2023-05-12T21:54:02.009Z,96976.84
2023-05-12T21:56:28.588Z,96965.06
2023-05-12T21:58:55.648Z,96967.84
2023-05-12T22:01:22.165Z,96971.81
2023-05-12T22:03:49.387Z,96979.03
2023-05-12T22:06:15.967Z,96981.19
2023-05-12T22:08:43.615Z,96978.41
2023-05-12T22:11:10.774Z,96975.81
2023-05-12T22:13:37.520Z,96979.16
2023-05-12T22:16:04.320Z,96979.16
2023-05-12T22:18:30.960Z,96973.75
2023-05-12T22:20:57.518Z,96980.78
2023-05-12T22:23:23.970Z,96983.72
2023-05-12T22:25:50.652Z,96985.91
2023-05-12T22:28:18.225Z,96992.63
2023-05-12T22:30:44.655Z,96976.25
2023-05-12T22:33:11.302Z,96977.22
2023-05-12T22:35:37.938Z,96984.28
2023-05-12T22:38:04.435Z,96980.84
2023-05-12T22:40:31.339Z,96984.47
2023-05-12T22:42:57.886Z,96979.22
2023-05-12T22:45:25.444Z,96979.06
2023-05-12T22:47:52.299Z,96977.09
2023-05-12T22:50:19.256Z,96972.50
2023-05-12T22:52:46.071Z,96976.44
2023-05-12T22:55:12.645Z,96979.06
2023-05-12T22:57:40.860Z,96974.31
2023-05-12T23:00:07.881Z,96969.06
2023-05-12T23:02:34.401Z,96969.09
2023-05-12T23:05:01.148Z,96960.72
2023-05-12T23:07:27.840Z,96970.06
2023-05-12T23:09:54.285Z,96969.41
2023-05-12T23:12:20.769Z,96970.53
2023-05-12T23:14:47.283Z,96968.09
2023-05-12T23:17:14.833Z,96972.19
2023-05-12T23:19:41.395Z,96968.78
2023-05-12T23:22:07.855Z,96974.66
2023-05-12T23:24:36.054Z,96956.59
2023-05-12T23:27:02.587Z,96961.22
2023-05-12T23:29:29.076Z,96949.53
2023-05-12T23:31:58.713Z,96954.31
2023-05-12T23:34:25.828Z,96949.72
2023-05-12T23:36:52.452Z,96941.19
2023-05-12T23:39:18.995Z,96940.53
2023-05-12T23:41:45.670Z,96933.00
2023-05-12T23:44:12.929Z,96945.47
2023-05-12T23:46:39.552Z,96944.16
2023-05-12T23:49:06.426Z,96942.50
2023-05-12T23:51:33.265Z,96919.22
2023-05-12T23:54:00.062Z,96920.88
2023-05-12T23:56:26.607Z,96920.84
2023-05-12T23:58:53.137Z,96920.50
